Knoxville, TN (37921)

11:41 AM EST on December 05, 2016 (GMT -0500)
KG4QWI | | Change Station

Elev 1250 ft 36.00 °N, 84.02 °W | Updated 3 seconds ago

Overcast
Overcast
46.5 °F
Feels Like 44 °F
N
5.8
Wind Variable Wind from ESE
Gusts 5.8 mph

Today
High -- | Low -- °F
--% Chance of Precip.
Yesterday
High -- | Low -- °F
Precip. -- in
Pressure 30.04 in
Visibility 7.0 miles
Clouds Mostly Cloudy 1100 ft
Mostly Cloudy 1600 ft
Overcast 2700 ft
Windchill 44 °F
Dew Point 46 °F
Humidity 100%
Rainfall 0.02 in
Snow Depth Not available.
7:31 AM 5:21 PM
Waxing Crescent, 33% visible
SPECI KTYS 051620Z 03009KT 7SM BKN011 BKN016 OVC027 10/08 A3004 RMK AO2 T01000078
Pressure 30.04 in
Visibility 7.0 miles
Clouds Mostly Cloudy 1100 ft
Mostly Cloudy 1600 ft
Overcast 2700 ft
Windchill 44 °F
Dew Point 46 °F
Humidity 100%
Rainfall 0.02 in
Snow Depth Not available.
7:31 AM 5:21 PM
Waxing Crescent, 33% visible
SPECI KTYS 051620Z 03009KT 7SM BKN011 BKN016 OVC027 10/08 A3004 RMK AO2 T01000078

10-Day Weather Forecast

Almanac

Astronomy

Dec. 05, 2016 Rise Set
Actual Time
Civil Twilight
Nautical Twilight
Astronomical Twilight
Moon
Length of Visible Light
Length of Day
Tomorrow will be .
, % of the Moon is Illuminated

Today's Extremes

State Highs State Lows

Community

WunderPhotos

Upload Photos

1,955,833 photos uploaded!

WunderBlog® & News

Nearby

Air Quality

  Air Quality AQ Index Pollutant
Not available.

Snow Depth

Station Depth Elevation

Earthquake Activity

City Distance Mag. Time & Date
Minimum magnitude displayed is 2.5.

Coastal Water Temperatures

Place Temperature

Stations

Nearby Weather Stations

Station Location Temp. Windchill Dew Point Humidity Wind Precip. Elev Updated Type
                   

Watches & Warnings

There are currently no watches in effect.